Time;durP1;ratioP1;P1;durP2;ratioP2;P2;SDS_P1;SDS_P2;PMS_P1;PMS_P2;Temp;Humidity;BMP_temperature;BMP_pressure;BME280_temperature;BME280_humidity;BME280_pressure;Samples;Min_cycle;Max_cycle;Signal;HPM_P1;HPM_P2
2022/02/23 00:01:05;;;;;;;;;3.25;3.00;;;;;13.53;63.25;102225.94;5081495;27;45293;-67
2022/02/23 00:03:31;;;;;;;;;4.00;2.75;;;;;13.47;63.12;102219.81;5080640;27;45633;-67
2022/02/23 00:05:56;;;;;;;;;4.75;3.25;;;;;13.43;63.24;102221.69;5080781;27;45415;-67
2022/02/23 00:08:22;;;;;;;;;3.75;3.00;;;;;13.45;63.40;102225.22;5076240;28;45347;-68
2022/02/23 00:10:47;;;;;;;;;3.00;3.00;;;;;13.47;63.48;102233.25;5078903;28;45263;-67
2022/02/23 00:13:12;;;;;;;;;2.25;2.25;;;;;13.48;63.28;102237.66;5067877;27;45212;-67
2022/02/23 00:15:38;;;;;;;;;3.75;3.75;;;;;13.42;63.48;102227.97;5077211;27;45436;-67
2022/02/23 00:18:10;;;;;;;;;5.00;5.00;;;;;13.45;63.31;102232.41;5079977;27;45211;-67
2022/02/23 00:20:36;;;;;;;;;3.00;3.00;;;;;13.45;63.23;102244.00;5062003;27;45321;-67
2022/02/23 00:23:01;;;;;;;;;5.00;3.00;;;;;13.43;63.43;102237.78;5065177;28;45742;-67
2022/02/23 00:25:26;;;;;;;;;4.25;4.00;;;;;13.42;63.43;102238.69;5075583;28;45567;-67
2022/02/23 00:27:52;;;;;;;;;3.75;2.50;;;;;13.37;63.15;102221.81;5073411;27;45484;-67
2022/02/23 00:30:17;;;;;;;;;2.00;2.00;;;;;13.41;63.20;102228.88;5077189;27;45191;-67
2022/02/23 00:32:43;;;;;;;;;6.50;3.75;;;;;13.40;63.11;102232.47;5064950;27;45395;-67
2022/02/23 00:35:08;;;;;;;;;4.50;3.00;;;;;13.35;63.21;102223.66;5081473;28;45300;-67
2022/02/23 00:37:34;;;;;;;;;6.25;2.75;;;;;13.33;63.10;102234.41;5074327;27;45477;-67
2022/02/23 00:40:00;;;;;;;;;4.50;2.00;;;;;13.33;62.95;102230.81;5077964;27;45239;-67
2022/02/23 00:42:26;;;;;;;;;5.75;2.00;;;;;13.30;63.00;102226.38;5076475;27;46002;-67
2022/02/23 00:44:52;;;;;;;;;5.00;4.50;;;;;13.26;63.04;102218.41;5071375;27;45692;-67
2022/02/23 00:47:17;;;;;;;;;3.00;2.00;;;;;13.30;62.70;102231.75;5069696;28;45460;-67
2022/02/23 00:49:42;;;;;;;;;5.00;3.00;;;;;13.26;62.99;102224.66;5073978;28;45457;-67
2022/02/23 00:52:08;;;;;;;;;4.00;3.75;;;;;13.28;63.19;102232.69;5062443;28;45452;-67
2022/02/23 00:54:34;;;;;;;;;6.00;2.50;;;;;13.26;63.01;102232.69;5060776;28;47167;-67
2022/02/23 00:57:00;;;;;;;;;4.00;3.00;;;;;13.26;63.00;102234.50;5062143;28;45514;-67
2022/02/23 00:59:25;;;;;;;;;6.00;4.00;;;;;13.24;62.69;102230.97;5077483;27;45412;-67
2022/02/23 01:01:51;;;;;;;;;6.25;3.25;;;;;13.23;62.84;102229.19;5069938;27;45594;-67
2022/02/23 01:04:19;;;;;;;;;4.00;1.50;;;;;13.25;62.92;102235.44;5071128;28;45643;-67
2022/02/23 01:06:44;;;;;;;;;5.75;4.00;;;;;13.19;62.84;102232.88;5076926;27;45336;-67
2022/02/23 01:09:10;;;;;;;;;2.00;0.00;;;;;13.19;62.76;102238.22;5071708;27;45801;-67
2022/02/23 01:11:35;;;;;;;;;3.00;3.00;;;;;13.20;62.74;102240.88;5070881;28;45547;-67
2022/02/23 01:14:01;;;;;;;;;3.75;2.75;;;;;13.22;62.81;102240.88;5062932;27;46078;-67
2022/02/23 01:16:26;;;;;;;;;2.75;2.50;;;;;13.21;62.53;102239.94;5069563;28;45512;-67
2022/02/23 01:18:52;;;;;;;;;4.00;3.00;;;;;13.22;62.62;102244.41;5061138;28;45523;-67
2022/02/23 01:21:17;;;;;;;;;3.00;3.00;;;;;13.22;62.60;102238.19;5068196;28;45400;-67
2022/02/23 01:23:43;;;;;;;;;2.00;2.00;;;;;13.23;62.76;102242.59;5062960;28;46086;-67
2022/02/23 01:26:08;;;;;;;;;2.25;2.00;;;;;13.22;62.73;102247.09;5071563;28;45438;-67
2022/02/23 01:28:34;;;;;;;;;2.00;2.00;;;;;13.21;62.45;102258.72;5070690;28;45346;-67
2022/02/23 01:30:59;;;;;;;;;3.00;3.00;;;;;13.14;62.78;102249.91;5072484;28;46846;-67
2022/02/23 01:33:25;;;;;;;;;4.00;2.75;;;;;13.14;62.49;102246.34;5065932;28;46152;-67
2022/02/23 01:35:51;;;;;;;;;5.75;3.00;;;;;13.12;62.71;102256.25;5076285;27;45385;-67
2022/02/23 01:38:16;;;;;;;;;4.25;2.50;;;;;13.10;62.85;102248.22;5068051;27;45342;-67
2022/02/23 01:40:43;;;;;;;;;5.00;4.50;;;;;13.11;62.68;102254.47;5073122;27;45416;-67
2022/02/23 01:43:08;;;;;;;;;2.50;2.50;;;;;13.10;62.56;102258.06;5065724;27;46222;-67
2022/02/23 01:45:34;;;;;;;;;3.50;2.75;;;;;13.08;62.74;102263.47;5074895;28;45325;-67
2022/02/23 01:47:59;;;;;;;;;4.00;3.00;;;;;13.03;62.89;102253.72;5076952;28;45404;-67
2022/02/23 01:50:25;;;;;;;;;4.00;3.50;;;;;13.04;62.75;102261.72;5069736;27;45271;-67
2022/02/23 01:52:50;;;;;;;;;4.25;4.00;;;;;13.03;62.55;102268.03;5064307;28;46963;-67
2022/02/23 01:55:16;;;;;;;;;2.75;2.00;;;;;13.00;62.76;102262.72;5076622;27;45273;-67
2022/02/23 01:57:41;;;;;;;;;3.75;3.25;;;;;12.98;62.71;102260.06;5062250;27;45199;-67
2022/02/23 02:00:11;;;;;;;;;6.00;4.00;;;;;12.96;63.00;102261.88;5059695;28;45386;-67
2022/02/23 02:02:36;;;;;;;;;5.00;2.00;;;;;12.93;62.76;102269.97;5060579;28;46056;-67
2022/02/23 02:05:06;;;;;;;;;5.25;4.00;;;;;12.93;62.77;102269.97;5070006;28;45494;-67
2022/02/23 02:07:32;;;;;;;;;7.75;3.50;;;;;12.88;62.79;102270.94;5063044;27;45508;-67
2022/02/23 02:09:58;;;;;;;;;5.50;3.25;;;;;12.89;62.97;102275.41;5075637;27;45464;-67
2022/02/23 02:12:24;;;;;;;;;6.50;5.00;;;;;12.88;62.90;102271.84;5073035;27;46243;-67
2022/02/23 02:14:50;;;;;;;;;4.50;2.50;;;;;12.83;62.78;102267.47;5080246;27;45414;-67
2022/02/23 02:17:15;;;;;;;;;4.00;4.00;;;;;12.82;62.81;102277.31;5077077;27;45346;-67
2022/02/23 02:19:41;;;;;;;;;6.75;4.00;;;;;12.79;62.73;102283.59;5063197;27;45306;-67
2022/02/23 02:22:08;;;;;;;;;4.25;2.00;;;;;12.81;62.90;102278.22;5068784;27;45282;-67
2022/02/23 02:24:36;;;;;;;;;4.50;3.00;;;;;12.80;62.89;102284.50;5068522;28;45485;-67
2022/02/23 02:27:05;;;;;;;;;8.75;4.25;;;;;12.80;62.99;102284.50;5072054;28;45518;-67
2022/02/23 02:29:31;;;;;;;;;8.50;3.25;;;;;12.75;62.84;102278.34;5076634;27;45622;-67
2022/02/23 02:31:56;;;;;;;;;3.75;2.50;;;;;12.75;62.88;102283.69;5066388;28;45499;-67
2022/02/23 02:34:22;;;;;;;;;2.75;2.75;;;;;12.74;62.88;102279.25;5072005;27;45379;-67
2022/02/23 02:36:48;;;;;;;;;2.00;2.00;;;;;12.71;62.98;102280.19;5073532;28;46484;-67
2022/02/23 02:39:15;;;;;;;;;3.50;2.25;;;;;12.66;62.86;102276.66;5066853;27;45250;-67
2022/02/23 02:41:41;;;;;;;;;3.00;2.75;;;;;12.68;62.62;102276.66;5070292;28;46129;-67
2022/02/23 02:44:06;;;;;;;;;3.25;3.25;;;;;12.68;62.91;102282.91;5075526;28;45459;-67
2022/02/23 02:46:32;;;;;;;;;7.00;3.00;;;;;12.67;62.63;102280.25;5069238;28;45425;-67
2022/02/23 02:48:58;;;;;;;;;7.50;4.00;;;;;12.66;62.68;102268.63;5072585;27;45447;-67
2022/02/23 02:51:23;;;;;;;;;4.25;3.00;;;;;12.64;62.61;102272.28;5069593;27;45502;-67
2022/02/23 02:53:48;;;;;;;;;4.75;2.25;;;;;12.58;62.65;102266.09;5071607;27;45396;-67
2022/02/23 02:56:14;;;;;;;;;5.75;4.00;;;;;12.60;62.94;102271.44;5063829;28;45425;-67
2022/02/23 02:58:39;;;;;;;;;3.00;2.25;;;;;12.58;62.81;102268.78;5068716;27;45581;-67
2022/02/23 03:01:05;;;;;;;;;4.50;3.50;;;;;12.54;62.86;102269.72;5069138;28;46182;-67
2022/02/23 03:03:31;;;;;;;;;6.75;4.00;;;;;12.55;62.76;102268.81;5072055;27;45331;-67
2022/02/23 03:05:56;;;;;;;;;3.50;2.25;;;;;12.53;62.74;102272.44;5072108;27;45336;-67
2022/02/23 03:08:21;;;;;;;;;4.25;4.00;;;;;12.51;62.85;102276.94;5071699;28;45409;-67
2022/02/23 03:10:47;;;;;;;;;4.00;2.75;;;;;12.49;62.73;102278.75;5074104;27;46623;-67
2022/02/23 03:13:12;;;;;;;;;8.00;3.75;;;;;12.50;62.61;102275.19;5077009;27;45277;-67
2022/02/23 03:15:37;;;;;;;;;4.75;4.00;;;;;12.46;62.76;102271.63;5067877;27;45293;-67
2022/02/23 03:18:04;;;;;;;;;6.75;3.00;;;;;12.48;62.54;102282.34;5077129;27;45525;-67
2022/02/23 03:20:32;;;;;;;;;4.25;2.50;;;;;12.44;62.85;102280.63;5063027;28;46136;-67
2022/02/23 03:22:57;;;;;;;;;7.75;5.50;;;;;12.44;62.92;102280.63;5065749;28;45412;-67
2022/02/23 03:25:23;;;;;;;;;7.75;3.00;;;;;12.42;62.63;102280.66;5064604;27;45357;-67
2022/02/23 03:27:48;;;;;;;;;3.00;3.00;;;;;12.42;62.78;102286.00;5070456;28;45627;-67
2022/02/23 03:30:14;;;;;;;;;4.50;4.50;;;;;12.40;62.64;102283.34;5070066;27;46152;-67
2022/02/23 03:32:39;;;;;;;;;3.25;2.00;;;;;12.40;62.73;102286.03;5064893;28;45268;-67
2022/02/23 03:35:06;;;;;;;;;4.00;3.50;;;;;12.39;62.90;102286.03;5066723;27;45369;-67
2022/02/23 03:37:31;;;;;;;;;4.25;3.25;;;;;12.41;62.87;102292.25;5072616;28;45295;-67
2022/02/23 03:39:57;;;;;;;;;4.50;3.00;;;;;12.33;62.71;102272.75;5081574;27;45680;-67
2022/02/23 03:42:23;;;;;;;;;2.50;2.50;;;;;12.39;62.67;102291.41;5069145;28;45386;-67
2022/02/23 03:44:48;;;;;;;;;4.00;2.25;;;;;12.35;62.73;102282.53;5075728;28;45274;-67
2022/02/23 03:47:14;;;;;;;;;3.50;3.00;;;;;12.38;62.49;102297.69;5069543;27;45169;-67
2022/02/23 03:49:39;;;;;;;;;3.25;2.50;;;;;12.35;62.75;102292.38;5071748;27;45742;-67
2022/02/23 03:52:05;;;;;;;;;4.50;3.25;;;;;12.34;62.80;102288.78;5063684;28;45378;-67
2022/02/23 03:54:30;;;;;;;;;4.25;3.00;;;;;12.34;62.63;102291.47;5074428;28;45211;-67
2022/02/23 03:56:55;;;;;;;;;5.00;3.00;;;;;12.32;62.58;102292.41;5075333;27;45338;-67
2022/02/23 03:59:21;;;;;;;;;6.50;3.00;;;;;12.31;62.82;102287.94;5068456;27;45333;-67
2022/02/23 04:01:46;;;;;;;;;3.00;2.25;;;;;12.28;62.59;102288.00;5065948;28;45504;-67
2022/02/23 04:04:13;;;;;;;;;6.50;4.75;;;;;12.28;62.70;102290.66;5072129;27;45487;-67
2022/02/23 04:06:39;;;;;;;;;9.50;3.00;;;;;12.26;62.44;102292.50;5064760;28;45311;-67
2022/02/23 04:09:07;;;;;;;;;4.50;3.75;;;;;12.22;62.81;102287.19;5074140;28;46040;-67
2022/02/23 04:11:34;;;;;;;;;5.25;4.25;;;;;12.23;62.78;102285.41;5063890;28;45507;-67
2022/02/23 04:13:59;;;;;;;;;7.00;3.25;;;;;12.21;62.79;102280.06;5070806;28;45422;-67
2022/02/23 04:16:25;;;;;;;;;7.75;1.75;;;;;12.22;62.83;102280.94;5069626;28;45458;-67
2022/02/23 04:18:50;;;;;;;;;6.75;2.75;;;;;12.16;63.02;102279.25;5065430;27;46227;-67
2022/02/23 04:21:16;;;;;;;;;2.00;2.00;;;;;12.19;62.46;102291.69;5060513;28;45484;-67
2022/02/23 04:23:41;;;;;;;;;4.25;3.00;;;;;12.14;62.93;102278.38;5073548;28;45338;-67
2022/02/23 04:26:07;;;;;;;;;5.00;3.75;;;;;12.13;62.85;102275.72;5068991;28;45577;-67
2022/02/23 04:28:34;;;;;;;;;4.75;3.00;;;;;12.12;62.62;102272.16;5075601;28;46042;-67
2022/02/23 04:31:00;;;;;;;;;4.75;2.50;;;;;12.11;62.64;102275.75;5069635;27;45436;-67
2022/02/23 04:33:25;;;;;;;;;2.50;2.00;;;;;12.06;62.68;102274.91;5074483;27;45336;-67
2022/02/23 04:35:51;;;;;;;;;2.00;1.00;;;;;12.09;63.34;102279.34;5074190;27;45236;-67
2022/02/23 04:38:18;;;;;;;;;2.75;2.25;;;;;12.06;62.88;102277.59;5071463;28;46379;-66
2022/02/23 04:40:44;;;;;;;;;4.75;4.25;;;;;11.98;62.73;102264.34;5075669;28;45425;-67
2022/02/23 04:43:13;;;;;;;;;5.00;4.50;;;;;12.01;62.67;102282.13;5076568;27;45597;-67
2022/02/23 04:45:40;;;;;;;;;4.50;3.00;;;;;11.98;62.68;102287.53;5078389;28;45438;-67
2022/02/23 04:48:06;;;;;;;;;5.00;3.75;;;;;11.96;63.04;102279.53;5075461;28;45450;-67
2022/02/23 04:50:32;;;;;;;;;5.25;3.00;;;;;11.95;62.86;102282.22;5067268;28;46966;-67
2022/02/23 04:52:57;;;;;;;;;2.75;2.25;;;;;11.95;62.98;102285.78;5061778;28;45297;-67
2022/02/23 04:55:22;;;;;;;;;5.00;3.00;;;;;11.95;62.80;102290.25;5075439;28;45345;-67
2022/02/23 04:57:48;;;;;;;;;4.50;2.25;;;;;11.93;62.74;102281.34;5063534;28;47164;-67
2022/02/23 05:00:14;;;;;;;;;2.75;2.25;;;;;11.93;62.72;102286.69;5066275;27;45159;-67
2022/02/23 05:02:39;;;;;;;;;6.50;4.00;;;;;11.87;62.79;102287.63;5067700;27;45637;-67
2022/02/23 05:05:06;;;;;;;;;3.75;3.00;;;;;11.87;62.82;102291.19;5082871;27;45452;-67
2022/02/23 05:07:31;;;;;;;;;7.75;3.00;;;;;11.85;62.66;102295.69;5071960;28;45433;-66
2022/02/23 05:09:56;;;;;;;;;3.75;2.25;;;;;11.80;62.58;102286.84;5074373;27;45377;-70
2022/02/23 05:12:24;;;;;;;;;2.75;2.25;;;;;11.80;62.71;102294.84;5065745;27;45432;-70
2022/02/23 05:14:49;;;;;;;;;5.25;3.75;;;;;11.80;62.99;102285.97;5073766;28;45278;-70
2022/02/23 05:17:15;;;;;;;;;4.75;3.50;;;;;11.78;62.73;102280.63;5068190;27;45688;-71
2022/02/23 05:19:41;;;;;;;;;3.25;2.50;;;;;11.78;62.72;102277.94;5068350;27;45517;-70
2022/02/23 05:22:07;;;;;;;;;6.00;3.50;;;;;11.76;63.10;102285.13;5077365;28;45397;-70
2022/02/23 05:24:33;;;;;;;;;3.00;2.75;;;;;11.77;63.10;102286.88;5071289;27;45496;-70
2022/02/23 05:26:59;;;;;;;;;6.00;4.00;;;;;11.78;62.96;102287.78;5072297;27;46170;-70
2022/02/23 05:29:25;;;;;;;;;7.50;3.75;;;;;11.76;62.89;102286.88;5067787;27;45650;-70
2022/02/23 05:31:51;;;;;;;;;3.25;2.00;;;;;11.74;62.78;102286.03;5069767;28;45632;-70
2022/02/23 05:34:17;;;;;;;;;3.50;3.50;;;;;11.70;63.07;102284.31;5074516;27;45573;-70
2022/02/23 05:36:42;;;;;;;;;5.00;3.25;;;;;11.71;62.60;102300.34;5078653;28;45431;-70
2022/02/23 05:39:08;;;;;;;;;5.25;4.25;;;;;11.66;62.89;102294.13;5076697;27;45361;-70
2022/02/23 05:41:33;;;;;;;;;6.00;4.00;;;;;11.62;63.06;102297.75;5067635;27;45800;-70
2022/02/23 05:43:59;;;;;;;;;5.75;4.75;;;;;11.59;62.81;102295.13;5078918;27;45445;-70
2022/02/23 05:46:24;;;;;;;;;6.75;5.00;;;;;11.61;63.10;102306.69;5079251;27;45491;-70
2022/02/23 05:48:49;;;;;;;;;7.00;3.75;;;;;11.59;62.79;102303.16;5074547;27;45509;-70
2022/02/23 05:51:30;;;;;;;;;4.00;3.25;;;;;11.60;62.94;102304.94;5071064;28;45474;-70
2022/02/23 05:53:56;;;;;;;;;4.75;4.00;;;;;11.59;63.08;102305.81;5072996;28;45351;-70
2022/02/23 05:56:22;;;;;;;;;6.00;3.25;;;;;11.57;63.15;102311.19;5068527;27;45607;-69
2022/02/23 05:58:47;;;;;;;;;5.75;3.00;;;;;11.54;62.99;102302.31;5068755;27;45395;-69
2022/02/23 06:01:13;;;;;;;;;6.00;3.75;;;;;11.54;63.08;102308.53;5066779;28;45350;-70
2022/02/23 06:03:39;;;;;;;;;5.50;3.75;;;;;11.53;62.75;102306.78;5079173;27;45560;-70
2022/02/23 06:06:04;;;;;;;;;7.50;5.00;;;;;11.48;63.00;102314.84;5060394;27;46128;-70
2022/02/23 06:08:30;;;;;;;;;8.50;6.00;;;;;11.44;62.93;102315.81;5066771;28;45412;-70
2022/02/23 06:10:55;;;;;;;;;8.00;6.50;;;;;11.47;62.87;102317.53;5065544;28;45299;-70
2022/02/23 06:13:21;;;;;;;;;5.25;3.75;;;;;11.42;62.87;102314.91;5075552;28;45367;-67
2022/02/23 06:15:47;;;;;;;;;5.50;5.25;;;;;11.43;62.87;102316.69;5080090;27;46861;-67
2022/02/23 06:18:12;;;;;;;;;6.25;5.50;;;;;11.43;63.10;102318.50;5073365;27;45333;-67
2022/02/23 06:20:38;;;;;;;;;10.25;4.50;;;;;11.38;63.12;102306.97;5077094;27;46218;-67
2022/02/23 06:23:03;;;;;;;;;7.25;7.00;;;;;11.36;63.07;102312.31;5077438;27;45381;-67
2022/02/23 06:25:29;;;;;;;;;10.25;7.50;;;;;11.31;62.99;102309.69;5063551;27;45310;-67
2022/02/23 06:27:54;;;;;;;;;9.50;6.75;;;;;11.30;62.86;102312.38;5076579;28;45269;-67
2022/02/23 06:30:20;;;;;;;;;10.00;7.50;;;;;11.31;63.09;102319.50;5063149;28;45402;-67
2022/02/23 06:32:45;;;;;;;;;8.25;7.00;;;;;11.29;63.34;102321.28;5073721;28;45662;-67
2022/02/23 06:35:10;;;;;;;;;8.00;6.75;;;;;11.27;63.44;102326.66;5069357;27;46016;-68
2022/02/23 06:37:36;;;;;;;;;8.50;6.00;;;;;11.30;62.81;102331.97;5076448;27;45160;-67
2022/02/23 06:40:02;;;;;;;;;10.25;8.00;;;;;11.27;63.05;102329.31;5080149;28;45483;-67
2022/02/23 06:42:28;;;;;;;;;10.00;5.75;;;;;11.28;63.03;102344.47;5062531;28;45492;-67
2022/02/23 06:44:54;;;;;;;;;10.00;6.25;;;;;11.24;63.08;102332.06;5062670;28;45928;-67
2022/02/23 06:47:20;;;;;;;;;19.75;15.25;;;;;11.23;63.01;102348.97;5081869;27;45484;-67
2022/02/23 06:49:46;;;;;;;;;13.75;13.50;;;;;11.20;63.16;102357.03;5081195;27;45397;-67
2022/02/23 06:52:11;;;;;;;;;12.50;10.50;;;;;11.17;63.30;102351.69;5065252;28;45518;-67
2022/02/23 06:54:37;;;;;;;;;14.75;11.00;;;;;11.17;63.05;102356.16;5066355;27;46065;-67
2022/02/23 06:57:09;;;;;;;;;13.25;9.75;;;;;11.13;63.47;102361.53;5074599;27;45513;-67
2022/02/23 06:59:37;;;;;;;;;14.25;9.25;;;;;11.06;63.10;102358.91;5073311;27;47021;-67
2022/02/23 07:02:03;;;;;;;;;9.25;9.00;;;;;11.06;63.21;102367.84;5071430;28;45262;-67
2022/02/23 07:04:28;;;;;;;;;10.50;9.75;;;;;11.05;63.14;102367.84;5062605;28;45361;-67
2022/02/23 07:06:53;;;;;;;;;11.50;6.00;;;;;11.04;63.37;102360.72;5067845;27;45216;-67
2022/02/23 07:09:19;;;;;;;;;13.00;7.00;;;;;11.00;63.12;102367.88;5080501;27;45392;-67
2022/02/23 07:11:44;;;;;;;;;7.50;6.00;;;;;10.95;63.48;102367.03;5063513;28;45480;-67
2022/02/23 07:14:11;;;;;;;;;11.00;8.25;;;;;10.91;63.16;102366.19;5073932;28;45370;-67
2022/02/23 07:16:37;;;;;;;;;8.50;8.50;;;;;10.90;63.39;102364.41;5076544;27;45549;-67
2022/02/23 07:19:03;;;;;;;;;7.50;7.25;;;;;10.86;63.06;102368.00;5078396;27;45409;-67
2022/02/23 07:21:28;;;;;;;;;6.25;6.00;;;;;10.80;63.42;102372.50;5077786;27;45404;-67
2022/02/23 07:23:53;;;;;;;;;11.25;6.25;;;;;10.74;63.15;102374.31;5063834;28;46120;-67
2022/02/23 07:26:19;;;;;;;;;9.75;9.00;;;;;10.67;63.53;102361.00;5074395;28;45268;-67
2022/02/23 07:28:45;;;;;;;;;9.00;8.50;;;;;10.71;63.32;102374.34;5066066;27;45450;-67
2022/02/23 07:31:13;;;;;;;;;12.50;8.00;;;;;10.69;63.49;102376.13;5073557;27;45484;-67
2022/02/23 07:33:39;;;;;;;;;12.00;6.50;;;;;10.62;63.52;102365.50;5072952;27;47238;-72
2022/02/23 07:36:06;;;;;;;;;10.00;9.00;;;;;10.63;64.12;102373.50;5067514;28;45395;-72
2022/02/23 07:38:32;;;;;;;;;11.00;9.50;;;;;10.64;63.83;102369.03;5071056;27;45431;-72
2022/02/23 07:40:57;;;;;;;;;12.25;9.50;;;;;10.61;63.62;102375.31;5068069;27;45436;-73
2022/02/23 07:43:23;;;;;;;;;15.00;10.00;;;;;10.58;64.16;102369.97;5071221;28;47072;-73
2022/02/23 07:45:53;;;;;;;;;10.50;10.00;;;;;10.57;64.42;102377.09;5064776;28;45595;-74
2022/02/23 07:48:18;;;;;;;;;9.75;6.50;;;;;10.58;63.91;102378.00;5070720;28;45490;-73
2022/02/23 07:50:43;;;;;;;;;10.00;10.00;;;;;10.57;64.19;102371.78;5074380;28;45304;-73
2022/02/23 07:53:09;;;;;;;;;11.00;10.00;;;;;10.51;63.79;102369.13;5076468;28;46315;-73
2022/02/23 07:55:36;;;;;;;;;13.25;11.25;;;;;10.54;64.32;102370.88;5070008;27;45435;-73
2022/02/23 07:58:03;;;;;;;;;11.75;10.00;;;;;10.48;64.25;102368.25;5071349;28;45226;-73
2022/02/23 08:00:29;;;;;;;;;10.25;9.25;;;;;10.55;64.53;102378.00;5068449;28;45355;-74
2022/02/23 08:02:55;;;;;;;;;9.75;9.75;;;;;10.45;63.96;102362.94;5073025;27;45378;-73
2022/02/23 08:05:20;;;;;;;;;11.75;11.00;;;;;10.53;64.56;102375.34;5069652;27;45543;-74
2022/02/23 08:07:46;;;;;;;;;8.75;4.50;;;;;10.48;64.66;102374.47;5081426;28;46378;-74
2022/02/23 08:10:12;;;;;;;;;13.00;11.75;;;;;10.49;64.69;102380.69;5074050;27;45453;-73
2022/02/23 08:12:37;;;;;;;;;13.25;10.00;;;;;10.52;64.75;102384.25;5073862;27;46123;-71
2022/02/23 08:19:31;;;;;;;;;9.50;9.00;;;;;10.53;64.45;102378.00;5066820;27;45491;-73
2022/02/23 08:20:33;;;;;;;;;12.00;12.00;;;;;10.53;64.78;102377.13;5068874;28;45659;-73
2022/02/23 08:22:59;;;;;;;;;12.00;10.00;;;;;10.55;64.87;102380.66;5053690;27;45429;-67
2022/02/23 08:25:24;;;;;;;;;12.75;10.75;;;;;10.55;64.74;102380.66;5073958;27;45577;-67
2022/02/23 08:27:50;;;;;;;;;18.25;14.00;;;;;10.54;65.14;102378.88;5076992;28;45318;-67
2022/02/23 08:30:15;;;;;;;;;18.25;15.00;;;;;10.53;65.06;102380.69;5070741;27;45470;-66
2022/02/23 08:32:41;;;;;;;;;14.00;12.00;;;;;10.53;64.77;102388.69;5071166;27;46097;-67
2022/02/23 08:35:06;;;;;;;;;12.50;9.25;;;;;10.54;64.97;102376.22;5061851;27;45216;-67
2022/02/23 08:37:32;;;;;;;;;12.75;10.50;;;;;10.63;64.74;102383.31;5068517;28;45661;-67
2022/02/23 08:39:59;;;;;;;;;21.50;14.75;;;;;10.66;65.14;102385.94;5064079;28;45322;-67
2022/02/23 08:42:26;;;;;;;;;13.75;13.00;;;;;10.69;64.96;102391.25;5067390;27;46521;-67
2022/02/23 08:44:51;;;;;;;;;13.25;11.75;;;;;10.70;65.02;102393.03;5065346;28;45336;-67
2022/02/23 08:47:18;;;;;;;;;14.75;9.50;;;;;10.69;65.34;102386.81;5073829;28;46064;-67
2022/02/23 08:49:44;;;;;;;;;17.25;11.50;;;;;10.67;65.37;102395.72;5074096;28;45300;-67
2022/02/23 08:52:09;;;;;;;;;10.50;8.75;;;;;10.66;65.16;102400.19;5067034;28;46203;-67
2022/02/23 08:54:36;;;;;;;;;11.00;10.50;;;;;10.63;65.67;102392.19;5071144;27;45388;-67
2022/02/23 08:57:02;;;;;;;;;11.00;11.00;;;;;10.60;65.60;102396.66;5073196;27;45310;-67
2022/02/23 08:59:27;;;;;;;;;14.75;11.75;;;;;10.59;65.85;102390.41;5073351;27;45476;-67
2022/02/23 09:01:53;;;;;;;;;12.75;12.75;;;;;10.56;65.47;102379.78;5058483;28;47166;-73
2022/02/23 09:04:18;;;;;;;;;18.25;12.00;;;;;10.69;65.63;102401.94;5066394;28;45336;-67
2022/02/23 09:06:43;;;;;;;;;12.75;12.00;;;;;10.72;65.47;102391.25;5066664;28;45558;-69
2022/02/23 09:09:13;;;;;;;;;12.25;11.00;;;;;10.75;65.56;102392.09;5066968;28;45546;-68
2022/02/23 09:11:39;;;;;;;;;13.50;13.50;;;;;10.76;65.78;102374.31;5072367;27;46916;-70
2022/02/23 09:14:05;;;;;;;;;14.25;11.00;;;;;10.78;65.46;102375.19;5063351;28;45274;-68
2022/02/23 09:16:31;;;;;;;;;10.00;9.75;;;;;10.81;65.57;102371.59;5061770;28;45367;-68
2022/02/23 09:18:57;;;;;;;;;12.00;10.50;;;;;10.90;65.63;102384.88;5062535;28;45571;-68
2022/02/23 09:21:23;;;;;;;;;11.75;8.50;;;;;10.94;65.32;102379.53;5077883;28;46486;-68
2022/02/23 09:23:48;;;;;;;;;9.50;9.25;;;;;10.96;65.05;102379.50;5074432;27;45572;-69
2022/02/23 09:26:15;;;;;;;;;14.50;9.50;;;;;11.00;65.49;102380.38;5073852;27;45331;-68
2022/02/23 09:28:40;;;;;;;;;14.25;12.25;;;;;11.01;65.86;102369.66;5071622;27;45389;-68
2022/02/23 09:31:07;;;;;;;;;19.25;18.50;;;;;11.12;65.37;102380.25;5067998;28;46186;-68
2022/02/23 09:33:33;;;;;;;;;19.25;15.25;;;;;11.16;65.20;102365.06;5066756;27;45297;-67
2022/02/23 09:36:02;;;;;;;;;19.50;15.75;;;;;11.20;65.17;102369.50;5081912;27;45479;-67
2022/02/23 09:38:29;;;;;;;;;15.00;14.25;;;;;11.28;65.34;102373.00;5077253;27;45503;-70
2022/02/23 09:40:54;;;;;;;;;18.00;15.25;;;;;11.30;65.13;102372.06;5070882;27;45377;-69
2022/02/23 09:43:20;;;;;;;;;14.75;12.75;;;;;11.36;65.30;102370.22;5063818;27;45334;-67
2022/02/23 09:45:53;;;;;;;;;13.50;10.75;;;;;11.42;64.85;102359.50;5064280;28;45449;-67
2022/02/23 09:48:20;;;;;;;;;13.50;12.75;;;;;11.42;64.79;102359.50;5069978;28;45414;-67
2022/02/23 09:50:45;;;;;;;;;18.50;14.25;;;;;11.48;65.14;102362.13;5075653;27;45461;-67
2022/02/23 09:53:11;;;;;;;;;24.50;18.25;;;;;11.52;64.87;102355.81;5060764;28;45306;-67
2022/02/23 09:55:37;;;;;;;;;15.25;14.50;;;;;11.55;64.39;102352.22;5081359;27;45512;-67
2022/02/23 09:58:02;;;;;;;;;14.25;13.00;;;;;11.56;64.67;102348.63;5067199;27;45447;-68
2022/02/23 10:00:28;;;;;;;;;14.00;12.00;;;;;11.57;64.96;102342.41;5062985;28;45398;-68
2022/02/23 10:02:55;;;;;;;;;14.75;11.75;;;;;11.60;64.38;102343.25;5068310;27;45259;-69
2022/02/23 10:05:22;;;;;;;;;12.00;10.25;;;;;11.60;64.46;102334.34;5064670;27;45280;-68
2022/02/23 10:07:47;;;;;;;;;15.25;10.50;;;;;11.67;64.53;102336.03;5063338;28;46266;-68
2022/02/23 10:10:13;;;;;;;;;14.25;12.25;;;;;11.73;64.33;102330.63;5070517;28;45549;-68
2022/02/23 10:12:41;;;;;;;;;6.00;6.00;;;;;11.78;63.93;102331.47;5068106;27;45768;-68
2022/02/23 10:15:16;;;;;;;;;11.00;7.50;;;;;11.83;63.65;102340.31;5064659;28;45343;-68
2022/02/23 10:17:44;;;;;;;;;12.00;7.00;;;;;11.88;63.86;102326.88;5065672;28;45397;-68
2022/02/23 10:20:23;;;;;;;;;12.00;11.75;;;;;11.91;63.72;102332.22;5066693;28;45342;-68
2022/02/23 10:22:50;;;;;;;;;10.75;8.25;;;;;11.93;63.29;102333.09;5079076;27;45669;-68
2022/02/23 10:25:25;;;;;;;;;7.25;5.50;;;;;11.96;62.86;102330.38;5077984;27;45386;-68
2022/02/23 10:28:08;;;;;;;;;11.25;8.25;;;;;12.00;63.05;102326.75;5075186;27;45444;-68
2022/02/23 10:30:34;;;;;;;;;11.00;9.25;;;;;12.02;63.11;102332.09;5059077;28;45473;-68
2022/02/23 10:33:18;;;;;;;;;11.25;7.50;;;;;11.99;63.16;102322.28;5065551;28;45307;-68
2022/02/23 10:35:52;;;;;;;;;7.50;6.75;;;;;12.08;62.76;102336.47;5065617;27;45524;-68
2022/02/23 10:38:23;;;;;;;;;7.25;6.00;;;;;12.11;62.82;102331.06;5079134;27;45329;-68
2022/02/23 10:40:48;;;;;;;;;5.00;3.75;;;;;12.14;62.70;102341.75;5059317;28;45553;-68
2022/02/23 10:43:24;;;;;;;;;9.25;7.75;;;;;12.19;62.58;102335.41;5057791;28;45368;-68
2022/02/23 10:46:01;;;;;;;;;15.25;10.75;;;;;12.20;62.32;102321.13;5066356;28;45548;-66
2022/02/23 10:48:39;;;;;;;;;8.00;7.00;;;;;12.26;61.93;102324.63;5060027;28;45497;-67
2022/02/23 10:51:07;;;;;;;;;9.25;9.00;;;;;12.28;62.27;102320.13;5085695;27;47194;-67
2022/02/23 10:53:34;;;;;;;;;11.75;8.00;;;;;12.29;61.84;102319.22;5077937;27;45300;-67
2022/02/23 10:56:01;;;;;;;;;10.25;8.50;;;;;12.31;61.80;102320.09;5067560;28;45310;-66
2022/02/23 10:58:28;;;;;;;;;10.00;8.00;;;;;12.36;61.76;102315.53;5077284;28;45369;-67
2022/02/23 11:01:03;;;;;;;;;9.50;8.00;;;;;12.39;61.39;102310.16;5062373;28;45978;-67
2022/02/23 11:03:29;;;;;;;;;13.25;9.25;;;;;12.37;61.24;102301.25;5067520;27;45533;-66
2022/02/23 11:05:54;;;;;;;;;6.75;6.75;;;;;12.37;60.81;102307.50;5070085;28;45433;-67
2022/02/23 11:08:21;;;;;;;;;8.75;7.75;;;;;12.36;61.05;102302.16;5067006;27;45507;-66
2022/02/23 11:10:48;;;;;;;;;7.25;6.25;;;;;12.41;60.90;102301.19;5058546;28;47022;-66
2022/02/23 11:13:18;;;;;;;;;8.25;5.50;;;;;12.46;60.63;102311.81;5070294;28;45274;-67
2022/02/23 11:15:46;;;;;;;;;7.75;6.00;;;;;12.47;60.44;102292.16;5079124;27;45370;-67
2022/02/23 11:18:16;;;;;;;;;5.50;5.00;;;;;12.55;60.21;102302.78;5081110;27;45400;-67
2022/02/23 11:20:43;;;;;;;;;5.25;4.25;;;;;12.60;59.08;102298.22;5079609;27;45241;-67